Archival Weather

Tokyo Intl

Tokyo, Japan (RJTT)

Report from: Friday, September 22, 2023 4:30 AM JST
Current time: Saturday, March 2, 2024 7:35 PM JST

Current weather – Weather history – Daily summaries
Weather forecast

Present weatherLight rain showers
Temperature25.0°C (77.0°F)
Dew point24.0°C (75.2°F)
Winds 12 kts (6.2 m/s, 13.8 mph) Southwest (230°)
Visibility6.2 mi. (10 km)
Clouds Few clouds 1,500 ft. (457 m)
Ceiling: Broken clouds 14,000 ft. (4,267 m)
Altimeter29.74 in.Hg (1007 mB)
Relative humidity94 %
Density altitude1,768 ft. (539 m)
Remarks No significant changes expected in the next two hours
Flight conditions Visual Meteorological Conditions
Raw dataRJTT 211930Z 23012KT 9999 -SHRA FEW015 BKN140 25/24 Q1007 NOSIG
An error has occurred. This application may no longer respond until reloaded. Reload 🗙